sensor_id;sensor_type;location;lat;lon;timestamp;pressure;altitude;pressure_sealevel;temperature;humidity
59103;BME280;43999;51.660;5.616;2023-04-07T00:01:55;101224.16;;;7.98;100.00
59103;BME280;43999;51.660;5.616;2023-04-07T00:04:24;101223.28;;;7.98;100.00
59103;BME280;43999;51.660;5.616;2023-04-07T00:06:52;101227.72;;;7.96;100.00
59103;BME280;43999;51.660;5.616;2023-04-07T00:09:19;101229.50;;;7.95;100.00
59103;BME280;43999;51.660;5.616;2023-04-07T00:11:47;101226.06;;;7.93;100.00
59103;BME280;43999;51.660;5.616;2023-04-07T00:14:14;101229.59;;;7.92;100.00
59103;BME280;43999;51.660;5.616;2023-04-07T00:16:41;101227.06;;;7.90;100.00
59103;BME280;43999;51.660;5.616;2023-04-07T00:19:09;101221.00;;;7.90;100.00
59103;BME280;43999;51.660;5.616;2023-04-07T00:21:36;101227.94;;;7.89;100.00
59103;BME280;43999;51.660;5.616;2023-04-07T00:24:04;101225.34;;;7.89;100.00
59103;BME280;43999;51.660;5.616;2023-04-07T00:26:31;101225.38;;;7.88;100.00
59103;BME280;43999;51.660;5.616;2023-04-07T00:28:59;101230.66;;;7.86;100.00
59103;BME280;43999;51.660;5.616;2023-04-07T00:31:27;101232.44;;;7.86;100.00
59103;BME280;43999;51.660;5.616;2023-04-07T00:33:54;101222.00;;;7.86;100.00
59103;BME280;43999;51.660;5.616;2023-04-07T00:36:25;101221.22;;;7.84;100.00
59103;BME280;43999;51.660;5.616;2023-04-07T00:38:53;101224.72;;;7.83;100.00
59103;BME280;43999;51.660;5.616;2023-04-07T00:41:20;101228.28;;;7.80;100.00
59103;BME280;43999;51.660;5.616;2023-04-07T00:43:50;101224.78;;;7.81;100.00
59103;BME280;43999;51.660;5.616;2023-04-07T00:46:21;101224.00;;;7.79;100.00
59103;BME280;43999;51.660;5.616;2023-04-07T00:48:50;101230.09;;;7.78;100.00
59103;BME280;43999;51.660;5.616;2023-04-07T00:51:20;101223.22;;;7.76;100.00
59103;BME280;43999;51.660;5.616;2023-04-07T00:53:48;101219.84;;;7.74;100.00
59103;BME280;43999;51.660;5.616;2023-04-07T00:56:16;101225.06;;;7.74;100.00
59103;BME280;43999;51.660;5.616;2023-04-07T00:58:43;101214.63;;;7.74;100.00
59103;BME280;43999;51.660;5.616;2023-04-07T01:01:21;101222.50;;;7.72;100.00
59103;BME280;43999;51.660;5.616;2023-04-07T01:03:59;101213.94;;;7.68;100.00
59103;BME280;43999;51.660;5.616;2023-04-07T01:06:36;101226.88;;;7.71;100.00
59103;BME280;43999;51.660;5.616;2023-04-07T01:09:18;101224.25;;;7.71;100.00
59103;BME280;43999;51.660;5.616;2023-04-07T01:15:11;101226.22;;;7.65;100.00
59103;BME280;43999;51.660;5.616;2023-04-07T01:17:46;101220.94;;;7.66;100.00
59103;BME280;43999;51.660;5.616;2023-04-07T01:20:21;101227.13;;;7.64;100.00
59103;BME280;43999;51.660;5.616;2023-04-07T01:23:03;101225.47;;;7.61;100.00
59103;BME280;43999;51.660;5.616;2023-04-07T01:25:58;101227.25;;;7.61;100.00
59103;BME280;43999;51.660;5.616;2023-04-07T01:28:54;101226.44;;;7.59;100.00
59103;BME280;43999;51.660;5.616;2023-04-07T01:31:23;101224.84;;;7.54;100.00
59103;BME280;43999;51.660;5.616;2023-04-07T01:33:56;101228.34;;;7.53;100.00
59103;BME280;43999;51.660;5.616;2023-04-07T01:36:27;101219.03;;;7.46;100.00
59103;BME280;43999;51.660;5.616;2023-04-07T01:38:58;101225.84;;;7.50;100.00
59103;BME280;43999;51.660;5.616;2023-04-07T01:41:27;101236.41;;;7.47;100.00
59103;BME280;43999;51.660;5.616;2023-04-07T01:43:56;101245.09;;;7.46;100.00
59103;BME280;43999;51.660;5.616;2023-04-07T01:46:27;101234.72;;;7.45;100.00
59103;BME280;43999;51.660;5.616;2023-04-07T01:48:55;101239.09;;;7.44;100.00
59103;BME280;43999;51.660;5.616;2023-04-07T01:51:25;101239.09;;;7.44;100.00
59103;BME280;43999;51.660;5.616;2023-04-07T01:53:58;101240.06;;;7.42;100.00
59103;BME280;43999;51.660;5.616;2023-04-07T01:56:29;101239.25;;;7.40;100.00
59103;BME280;43999;51.660;5.616;2023-04-07T01:58:59;101250.53;;;7.40;100.00
59103;BME280;43999;51.660;5.616;2023-04-07T02:01:26;101246.31;;;7.38;100.00
59103;BME280;43999;51.660;5.616;2023-04-07T02:04:24;101246.25;;;7.39;100.00
59103;BME280;43999;51.660;5.616;2023-04-07T02:07:21;101250.63;;;7.37;100.00
59103;BME280;43999;51.660;5.616;2023-04-07T02:09:59;101251.47;;;7.39;100.00
59103;BME280;43999;51.660;5.616;2023-04-07T02:12:30;101250.63;;;7.37;100.00
59103;BME280;43999;51.660;5.616;2023-04-07T02:15:10;101249.81;;;7.36;100.00
59103;BME280;43999;51.660;5.616;2023-04-07T02:17:45;101255.00;;;7.36;100.00
59103;BME280;43999;51.660;5.616;2023-04-07T02:20:16;101248.09;;;7.35;100.00
59103;BME280;43999;51.660;5.616;2023-04-07T02:22:47;101253.41;;;7.32;100.00
59103;BME280;43999;51.660;5.616;2023-04-07T02:25:22;101255.06;;;7.35;100.00
59103;BME280;43999;51.660;5.616;2023-04-07T02:27:59;101255.97;;;7.34;100.00
59103;BME280;43999;51.660;5.616;2023-04-07T02:30:27;101257.66;;;7.35;100.00
59103;BME280;43999;51.660;5.616;2023-04-07T02:32:56;101262.03;;;7.34;100.00
59103;BME280;43999;51.660;5.616;2023-04-07T02:35:24;101255.91;;;7.35;100.00
59103;BME280;43999;51.660;5.616;2023-04-07T02:37:53;101246.56;;;7.30;100.00
59103;BME280;43999;51.660;5.616;2023-04-07T02:40:24;101260.28;;;7.35;100.00
59103;BME280;43999;51.660;5.616;2023-04-07T02:42:52;101254.28;;;7.33;100.00
59103;BME280;43999;51.660;5.616;2023-04-07T02:45:22;101261.22;;;7.32;100.00
59103;BME280;43999;51.660;5.616;2023-04-07T02:47:51;101246.50;;;7.31;100.00
59103;BME280;43999;51.660;5.616;2023-04-07T02:50:18;101258.56;;;7.34;100.00
59103;BME280;43999;51.660;5.616;2023-04-07T02:52:46;101259.44;;;7.34;100.00
59103;BME280;43999;51.660;5.616;2023-04-07T02:55:14;101254.28;;;7.33;100.00
59103;BME280;43999;51.660;5.616;2023-04-07T02:57:41;101260.31;;;7.33;100.00
59103;BME280;43999;51.660;5.616;2023-04-07T03:00:18;101256.94;;;7.31;100.00
59103;BME280;43999;51.660;5.616;2023-04-07T03:03:00;101256.88;;;7.33;100.00
59103;BME280;43999;51.660;5.616;2023-04-07T03:05:31;101257.72;;;7.33;100.00
59103;BME280;43999;51.660;5.616;2023-04-07T03:08:11;101252.63;;;7.30;100.00
59103;BME280;43999;51.660;5.616;2023-04-07T03:10:39;101248.25;;;7.31;100.00
59103;BME280;43999;51.660;5.616;2023-04-07T03:13:09;101254.31;;;7.31;100.00
59103;BME280;43999;51.660;5.616;2023-04-07T03:15:39;101244.78;;;7.30;100.00
59103;BME280;43999;51.660;5.616;2023-04-07T03:18:14;101250.06;;;7.29;100.00
59103;BME280;43999;51.660;5.616;2023-04-07T03:20:48;101252.56;;;7.32;100.00
59103;BME280;43999;51.660;5.616;2023-04-07T03:23:16;101250.78;;;7.32;100.00
59103;BME280;43999;51.660;5.616;2023-04-07T03:25:45;101255.91;;;7.35;100.00
59103;BME280;43999;51.660;5.616;2023-04-07T03:28:14;101263.78;;;7.34;100.00
59103;BME280;43999;51.660;5.616;2023-04-07T03:30:42;101258.56;;;7.34;100.00
59103;BME280;43999;51.660;5.616;2023-04-07T03:33:11;101263.78;;;7.34;100.00
59103;BME280;43999;51.660;5.616;2023-04-07T03:35:38;101270.66;;;7.36;100.00
59103;BME280;43999;51.660;5.616;2023-04-07T03:38:07;101256.81;;;7.34;100.00
59103;BME280;43999;51.660;5.616;2023-04-07T03:40:36;101260.28;;;7.35;100.00
59103;BME280;43999;51.660;5.616;2023-04-07T03:43:03;101259.38;;;7.36;100.00
59103;BME280;43999;51.660;5.616;2023-04-07T03:45:33;101262.00;;;7.36;100.00
59103;BME280;43999;51.660;5.616;2023-04-07T03:48:00;101262.00;;;7.36;100.00
59103;BME280;43999;51.660;5.616;2023-04-07T03:50:29;101266.34;;;7.35;100.00
59103;BME280;43999;51.660;5.616;2023-04-07T03:53:07;101269.00;;;7.34;100.00
59103;BME280;43999;51.660;5.616;2023-04-07T03:55:36;101267.22;;;7.36;100.00
59103;BME280;43999;51.660;5.616;2023-04-07T03:58:14;101263.78;;;7.34;100.00
59103;BME280;43999;51.660;5.616;2023-04-07T04:00:45;101272.47;;;7.34;100.00
59103;BME280;43999;51.660;5.616;2023-04-07T04:03:15;101271.59;;;7.34;100.00
59103;BME280;43999;51.660;5.616;2023-04-07T04:06:12;101268.31;;;7.29;100.00
59103;BME280;43999;51.660;5.616;2023-04-07T04:08:42;101270.00;;;7.30;100.00
59103;BME280;43999;51.660;5.616;2023-04-07T04:11:13;101262.31;;;7.27;100.00
59103;BME280;43999;51.660;5.616;2023-04-07T04:13:50;101268.31;;;7.29;100.00
59103;BME280;43999;51.660;5.616;2023-04-07T04:16:20;101262.41;;;7.24;100.00
59103;BME280;43999;51.660;5.616;2023-04-07T04:18:49;101264.84;;;7.28;100.00
59103;BME280;43999;51.660;5.616;2023-04-07T04:21:17;101258.03;;;7.24;100.00
59103;BME280;43999;51.660;5.616;2023-04-07T04:23:45;101266.53;;;7.29;100.00
59103;BME280;43999;51.660;5.616;2023-04-07T04:26:20;101266.59;;;7.28;100.00
59103;BME280;43999;51.660;5.616;2023-04-07T04:28:58;101279.56;;;7.29;100.00
59103;BME280;43999;51.660;5.616;2023-04-07T04:31:27;101277.88;;;7.28;100.00
59103;BME280;43999;51.660;5.616;2023-04-07T04:33:55;101277.00;;;7.28;100.00
59103;BME280;43999;51.660;5.616;2023-04-07T04:36:23;101281.38;;;7.27;100.00
59103;BME280;43999;51.660;5.616;2023-04-07T04:38:57;101284.84;;;7.28;100.00
59103;BME280;43999;51.660;5.616;2023-04-07T04:41:25;101286.66;;;7.26;100.00
59103;BME280;43999;51.660;5.616;2023-04-07T04:43:52;101278.13;;;7.21;100.00
59103;BME280;43999;51.660;5.616;2023-04-07T04:46:23;101287.53;;;7.25;100.00
59103;BME280;43999;51.660;5.616;2023-04-07T04:48:51;101287.53;;;7.25;100.00
59103;BME280;43999;51.660;5.616;2023-04-07T04:51:21;101294.41;;;7.27;100.00
59103;BME280;43999;51.660;5.616;2023-04-07T04:53:57;101297.06;;;7.26;100.00
59103;BME280;43999;51.660;5.616;2023-04-07T04:56:33;101290.09;;;7.26;100.00
59103;BME280;43999;51.660;5.616;2023-04-07T04:59:04;101294.47;;;7.26;100.00
59103;BME280;43999;51.660;5.616;2023-04-07T05:01:40;101293.72;;;7.22;100.00
59103;BME280;43999;51.660;5.616;2023-04-07T05:04:11;101297.19;;;7.23;100.00
59103;BME280;43999;51.660;5.616;2023-04-07T05:06:46;101302.44;;;7.21;100.00
59103;BME280;43999;51.660;5.616;2023-04-07T05:09:19;101293.84;;;7.19;100.00
59103;BME280;43999;51.660;5.616;2023-04-07T05:11:48;101312.03;;;7.21;100.00
59103;BME280;43999;51.660;5.616;2023-04-07T05:14:17;101301.66;;;7.19;100.00
59103;BME280;43999;51.660;5.616;2023-04-07T05:16:51;101308.59;;;7.18;100.00
59103;BME280;43999;51.660;5.616;2023-04-07T05:19:26;101301.69;;;7.17;100.00
59103;BME280;43999;51.660;5.616;2023-04-07T05:22:07;101307.69;;;7.20;100.00
59103;BME280;43999;51.660;5.616;2023-04-07T05:24:47;101310.31;;;7.20;100.00
59103;BME280;43999;51.660;5.616;2023-04-07T05:27:16;101311.19;;;7.18;100.00
59103;BME280;43999;51.660;5.616;2023-04-07T05:29:47;101316.41;;;7.18;100.00
59103;BME280;43999;51.660;5.616;2023-04-07T05:32:23;101321.66;;;7.17;100.00
59103;BME280;43999;51.660;5.616;2023-04-07T05:34:51;101313.09;;;7.13;100.00
59103;BME280;43999;51.660;5.616;2023-04-07T05:37:20;101330.31;;;7.19;100.00
59103;BME280;43999;51.660;5.616;2023-04-07T05:39:49;101328.59;;;7.18;100.00
59103;BME280;43999;51.660;5.616;2023-04-07T05:42:20;101328.50;;;7.21;100.00
59103;BME280;43999;51.660;5.616;2023-04-07T05:44:52;101331.06;;;7.23;100.00
59103;BME280;43999;51.660;5.616;2023-04-07T05:47:24;101325.00;;;7.22;100.00
59103;BME280;43999;51.660;5.616;2023-04-07T05:49:52;101325.91;;;7.21;100.00
59103;BME280;43999;51.660;5.616;2023-04-07T05:52:21;101328.41;;;7.24;100.00
59103;BME280;43999;51.660;5.616;2023-04-07T05:54:55;101333.63;;;7.24;100.00
59103;BME280;43999;51.660;5.616;2023-04-07T05:57:27;101338.00;;;7.24;100.00
59103;BME280;43999;51.660;5.616;2023-04-07T05:59:56;101336.28;;;7.23;100.00
59103;BME280;43999;51.660;5.616;2023-04-07T06:02:30;101340.59;;;7.24;100.00
59103;BME280;43999;51.660;5.616;2023-04-07T06:04:59;101341.50;;;7.23;100.00
59103;BME280;43999;51.660;5.616;2023-04-07T06:07:27;101345.75;;;7.25;100.00
59103;BME280;43999;51.660;5.616;2023-04-07T06:09:54;101350.97;;;7.25;100.00
59103;BME280;43999;51.660;5.616;2023-04-07T06:12:25;101345.72;;;7.27;100.00
59103;BME280;43999;51.660;5.616;2023-04-07T06:14:56;101351.78;;;7.27;100.00
59103;BME280;43999;51.660;5.616;2023-04-07T06:17:24;101345.72;;;7.27;100.00
59103;BME280;43999;51.660;5.616;2023-04-07T06:19:54;101355.16;;;7.29;100.00
59103;BME280;43999;51.660;5.616;2023-04-07T06:22:22;101357.72;;;7.31;100.00
59103;BME280;43999;51.660;5.616;2023-04-07T06:24:52;101356.88;;;7.30;100.00
59103;BME280;43999;51.660;5.616;2023-04-07T06:27:22;101362.06;;;7.32;100.00
59103;BME280;43999;51.660;5.616;2023-04-07T06:29:51;101364.47;;;7.38;100.00
59103;BME280;43999;51.660;5.616;2023-04-07T06:32:20;101359.19;;;7.40;100.00
59103;BME280;43999;51.660;5.616;2023-04-07T06:34:48;101371.28;;;7.42;100.00
59103;BME280;43999;51.660;5.616;2023-04-07T06:37:16;101368.69;;;7.42;100.00
59103;BME280;43999;51.660;5.616;2023-04-07T06:39:46;101362.59;;;7.42;100.00
59103;BME280;43999;51.660;5.616;2023-04-07T06:42:14;101370.31;;;7.45;100.00
59103;BME280;43999;51.660;5.616;2023-04-07T06:44:50;101375.44;;;7.48;100.00
59103;BME280;43999;51.660;5.616;2023-04-07T06:47:19;101377.16;;;7.49;100.00
59103;BME280;43999;51.660;5.616;2023-04-07T06:49:49;101378.81;;;7.51;100.00
59103;BME280;43999;51.660;5.616;2023-04-07T06:52:20;101377.84;;;7.54;100.00
59103;BME280;43999;51.660;5.616;2023-04-07T06:54:48;101385.66;;;7.54;100.00
59103;BME280;43999;51.660;5.616;2023-04-07T06:57:16;101392.59;;;7.55;100.00
59103;BME280;43999;51.660;5.616;2023-04-07T06:59:47;101394.28;;;7.58;100.00
59103;BME280;43999;51.660;5.616;2023-04-07T07:02:16;101396.81;;;7.59;100.00
59103;BME280;43999;51.660;5.616;2023-04-07T07:04:46;101399.38;;;7.61;100.00
59103;BME280;43999;51.660;5.616;2023-04-07T07:07:13;101395.81;;;7.63;100.00
59103;BME280;43999;51.660;5.616;2023-04-07T07:09:40;101392.34;;;7.63;100.00
59103;BME280;43999;51.660;5.616;2023-04-07T07:12:07;101399.13;;;7.68;100.00
59103;BME280;43999;51.660;5.616;2023-04-07T07:14:35;101393.97;;;7.67;100.00
59103;BME280;43999;51.660;5.616;2023-04-07T07:17:03;101407.66;;;7.74;100.00
59103;BME280;43999;51.660;5.616;2023-04-07T07:19:31;101399.56;;;7.81;100.00
59103;BME280;43999;51.660;5.616;2023-04-07T07:22:00;101391.69;;;7.83;100.00
59103;BME280;43999;51.660;5.616;2023-04-07T07:24:30;101395.72;;;7.92;100.00
59103;BME280;43999;51.660;5.616;2023-04-07T07:27:00;101402.47;;;7.99;100.00
59103;BME280;43999;51.660;5.616;2023-04-07T07:29:28;101412.78;;;8.02;100.00
59103;BME280;43999;51.660;5.616;2023-04-07T07:31:56;101412.69;;;8.05;100.00
59103;BME280;43999;51.660;5.616;2023-04-07T07:34:23;101422.25;;;8.06;100.00
59103;BME280;43999;51.660;5.616;2023-04-07T07:36:52;101418.75;;;8.05;100.00
59103;BME280;43999;51.660;5.616;2023-04-07T07:39:19;101421.16;;;8.12;100.00
59103;BME280;43999;51.660;5.616;2023-04-07T07:41:48;101416.50;;;8.21;100.00
59103;BME280;43999;51.660;5.616;2023-04-07T07:44:16;101417.06;;;8.30;100.00
59103;BME280;43999;51.660;5.616;2023-04-07T07:46:46;101419.34;;;8.39;100.00
59103;BME280;43999;51.660;5.616;2023-04-07T07:49:13;101427.06;;;8.43;100.00
59103;BME280;43999;51.660;5.616;2023-04-07T07:51:41;101425.88;;;8.52;100.00
59103;BME280;43999;51.660;5.616;2023-04-07T07:54:10;101424.69;;;8.61;100.00
59103;BME280;43999;51.660;5.616;2023-04-07T07:56:45;101428.78;;;8.68;100.00
59103;BME280;43999;51.660;5.616;2023-04-07T07:59:14;101435.09;;;8.86;100.00
59103;BME280;43999;51.660;5.616;2023-04-07T08:01:43;101437.50;;;8.92;100.00
59103;BME280;43999;51.660;5.616;2023-04-07T08:04:13;101438.28;;;8.94;100.00
59103;BME280;43999;51.660;5.616;2023-04-07T08:06:41;101442.59;;;8.95;100.00
59103;BME280;43999;51.660;5.616;2023-04-07T08:09:13;101447.84;;;8.95;100.00
59103;BME280;43999;51.660;5.616;2023-04-07T08:11:42;101448.69;;;8.96;100.00
59103;BME280;43999;51.660;5.616;2023-04-07T08:14:10;101447.91;;;8.94;100.00
59103;BME280;43999;51.660;5.616;2023-04-07T08:16:41;101456.75;;;8.90;100.00
59103;BME280;43999;51.660;5.616;2023-04-07T08:19:16;101458.63;;;8.86;100.00
59103;BME280;43999;51.660;5.616;2023-04-07T08:21:50;101460.44;;;8.84;100.00
59103;BME280;43999;51.660;5.616;2023-04-07T08:24:19;101459.75;;;8.79;100.00
59103;BME280;43999;51.660;5.616;2023-04-07T08:26:47;101454.69;;;8.74;100.00
59103;BME280;43999;51.660;5.616;2023-04-07T08:29:16;101467.69;;;8.76;100.00
59103;BME280;43999;51.660;5.616;2023-04-07T08:31:44;101458.31;;;8.70;100.00
59103;BME280;43999;51.660;5.616;2023-04-07T08:34:15;101460.03;;;8.71;100.00
59103;BME280;43999;51.660;5.616;2023-04-07T08:36:51;101465.16;;;8.74;100.00
59103;BME280;43999;51.660;5.616;2023-04-07T08:39:19;101470.16;;;8.81;100.00
59103;BME280;43999;51.660;5.616;2023-04-07T08:41:50;101471.75;;;8.85;100.00
59103;BME280;43999;51.660;5.616;2023-04-07T08:44:21;101478.31;;;8.95;100.00
59103;BME280;43999;51.660;5.616;2023-04-07T08:46:56;101471.81;;;9.07;100.00
59103;BME280;43999;51.660;5.616;2023-04-07T08:49:27;101474.19;;;9.13;100.00
59103;BME280;43999;51.660;5.616;2023-04-07T08:52:00;101472.84;;;9.25;100.00
59103;BME280;43999;51.660;5.616;2023-04-07T08:54:37;101482.19;;;9.32;100.00
59103;BME280;43999;51.660;5.616;2023-04-07T08:57:05;101481.09;;;9.38;100.00
59103;BME280;43999;51.660;5.616;2023-04-07T08:59:35;101484.13;;;9.49;100.00
59103;BME280;43999;51.660;5.616;2023-04-07T09:02:04;101488.47;;;9.50;100.00
59103;BME280;43999;51.660;5.616;2023-04-07T09:04:39;101490.22;;;9.49;100.00
59103;BME280;43999;51.660;5.616;2023-04-07T09:07:06;101491.03;;;9.51;100.00
59103;BME280;43999;51.660;5.616;2023-04-07T09:09:36;101489.13;;;9.55;100.00
59103;BME280;43999;51.660;5.616;2023-04-07T09:12:04;101495.09;;;9.59;100.00
59103;BME280;43999;51.660;5.616;2023-04-07T09:14:41;101497.72;;;9.59;100.00
59103;BME280;43999;51.660;5.616;2023-04-07T09:17:12;101498.75;;;9.55;100.00
59103;BME280;43999;51.660;5.616;2023-04-07T09:19:40;101506.84;;;9.48;100.00
59103;BME280;43999;51.660;5.616;2023-04-07T09:22:07;101504.41;;;9.44;100.00
59103;BME280;43999;51.660;5.616;2023-04-07T09:24:39;101495.88;;;9.39;100.00
59103;BME280;43999;51.660;5.616;2023-04-07T09:27:17;101502.88;;;9.38;100.00
59103;BME280;43999;51.660;5.616;2023-04-07T09:29:47;101504.59;;;9.39;100.00
59103;BME280;43999;51.660;5.616;2023-04-07T09:32:41;101500.44;;;9.33;100.00
59103;BME280;43999;51.660;5.616;2023-04-07T09:35:12;101498.78;;;9.31;100.00
59103;BME280;43999;51.660;5.616;2023-04-07T09:37:41;101506.69;;;9.29;100.00
59103;BME280;43999;51.660;5.616;2023-04-07T09:40:12;101507.72;;;9.25;100.00
59103;BME280;43999;51.660;5.616;2023-04-07T09:42:53;101510.41;;;9.24;100.00
59103;BME280;43999;51.660;5.616;2023-04-07T09:45:28;101510.41;;;9.24;100.00
59103;BME280;43999;51.660;5.616;2023-04-07T09:48:18;101507.66;;;9.27;100.00
59103;BME280;43999;51.660;5.616;2023-04-07T09:50:50;101504.19;;;9.26;100.00
59103;BME280;43999;51.660;5.616;2023-04-07T09:53:19;101516.84;;;9.37;100.00
59103;BME280;43999;51.660;5.616;2023-04-07T09:55:58;101517.50;;;9.44;100.00
59103;BME280;43999;51.660;5.616;2023-04-07T09:58:27;101512.91;;;9.49;100.00
59103;BME280;43999;51.660;5.616;2023-04-07T10:00:56;101519.88;;;9.50;100.00
59103;BME280;43999;51.660;5.616;2023-04-07T10:03:25;101511.09;;;9.51;100.00
59103;BME280;43999;51.660;5.616;2023-04-07T10:05:55;101512.19;;;9.45;100.00
59103;BME280;43999;51.660;5.616;2023-04-07T10:08:23;101515.47;;;9.50;100.00
59103;BME280;43999;51.660;5.616;2023-04-07T10:11:01;101522.59;;;9.47;100.00
59103;BME280;43999;51.660;5.616;2023-04-07T10:13:34;101522.53;;;9.48;100.00
59103;BME280;43999;51.660;5.616;2023-04-07T10:16:05;101527.78;;;9.48;100.00
59103;BME280;43999;51.660;5.616;2023-04-07T10:18:35;101525.28;;;9.45;100.00
59103;BME280;43999;51.660;5.616;2023-04-07T10:21:06;101525.41;;;9.42;100.00
59103;BME280;43999;51.660;5.616;2023-04-07T10:26:55;101531.75;;;9.35;100.00
59103;BME280;43999;51.660;5.616;2023-04-07T10:29:33;101527.47;;;9.32;100.00
59103;BME280;43999;51.660;5.616;2023-04-07T10:32:05;101533.66;;;9.31;100.00
59103;BME280;43999;51.660;5.616;2023-04-07T10:34:58;101537.16;;;9.30;100.00
59103;BME280;43999;51.660;5.616;2023-04-07T10:37:29;101548.53;;;9.29;100.00
59103;BME280;43999;51.660;5.616;2023-04-07T10:42:47;101548.28;;;9.36;100.00
59103;BME280;43999;51.660;5.616;2023-04-07T10:45:15;101548.41;;;9.32;100.00
59103;BME280;43999;51.660;5.616;2023-04-07T10:48:09;101551.91;;;9.33;100.00
59103;BME280;43999;51.660;5.616;2023-04-07T10:53:31;101546.56;;;9.36;100.00
59103;BME280;43999;51.660;5.616;2023-04-07T10:56:02;101550.06;;;9.35;100.00
59103;BME280;43999;51.660;5.616;2023-04-07T10:58:32;101554.44;;;9.35;100.00
59103;BME280;43999;51.660;5.616;2023-04-07T11:03:53;101545.69;;;9.36;100.00
59103;BME280;43999;51.660;5.616;2023-04-07T11:06:24;101556.66;;;9.45;100.00
59103;BME280;43999;51.660;5.616;2023-04-07T11:09:18;101550.44;;;9.48;100.00
59103;BME280;43999;51.660;5.616;2023-04-07T11:11:58;101550.44;;;9.48;100.00
59103;BME280;43999;51.660;5.616;2023-04-07T11:14:34;101559.28;;;9.45;100.00
59103;BME280;43999;51.660;5.616;2023-04-07T11:17:15;101563.63;;;9.45;100.00
59103;BME280;43999;51.660;5.616;2023-04-07T11:19:52;101562.00;;;9.42;100.00
59103;BME280;43999;51.660;5.616;2023-04-07T11:22:32;101561.25;;;9.39;100.00
59103;BME280;43999;51.660;5.616;2023-04-07T11:25:19;101563.19;;;9.33;100.00
59103;BME280;43999;51.660;5.616;2023-04-07T11:27:48;101559.03;;;9.28;100.00
59103;BME280;43999;51.660;5.616;2023-04-07T11:30:16;101565.19;;;9.27;100.00
59103;BME280;43999;51.660;5.616;2023-04-07T11:32:48;101560.75;;;9.29;100.00
59103;BME280;43999;51.660;5.616;2023-04-07T11:35:25;101564.09;;;9.32;100.00
59103;BME280;43999;51.660;5.616;2023-04-07T11:38:00;101560.53;;;9.35;100.00
59103;BME280;43999;51.660;5.616;2023-04-07T11:40:35;101568.94;;;9.43;100.00
59103;BME280;43999;51.660;5.616;2023-04-07T11:43:23;101574.69;;;9.53;100.00
59103;BME280;43999;51.660;5.616;2023-04-07T11:46:09;101578.53;;;9.66;100.00
59103;BME280;43999;51.660;5.616;2023-04-07T11:48:48;101576.31;;;9.79;100.00
59103;BME280;43999;51.660;5.616;2023-04-07T11:51:20;101575.03;;;9.90;100.00
59103;BME280;43999;51.660;5.616;2023-04-07T11:53:55;101576.44;;;9.98;100.00
59103;BME280;43999;51.660;5.616;2023-04-07T11:56:23;101577.97;;;10.04;100.00
59103;BME280;43999;51.660;5.616;2023-04-07T11:58:55;101577.66;;;10.12;100.00
59103;BME280;43999;51.660;5.616;2023-04-07T12:01:39;101588.56;;;10.23;100.00
59103;BME280;43999;51.660;5.616;2023-04-07T12:04:13;101588.44;;;10.26;100.00
59103;BME280;43999;51.660;5.616;2023-04-07T12:06:45;101581.47;;;10.25;100.00
59103;BME280;43999;51.660;5.616;2023-04-07T12:09:33;101591.75;;;10.30;100.00
59103;BME280;43999;51.660;5.616;2023-04-07T12:12:05;101581.66;;;10.20;100.00
59103;BME280;43999;51.660;5.616;2023-04-07T12:14:38;101597.38;;;10.20;100.00
59103;BME280;43999;51.660;5.616;2023-04-07T12:17:22;101600.19;;;10.16;100.00
59103;BME280;43999;51.660;5.616;2023-04-07T12:19:52;101594.34;;;10.09;100.00
59103;BME280;43999;51.660;5.616;2023-04-07T12:22:20;101592.09;;;10.00;100.00
59103;BME280;43999;51.660;5.616;2023-04-07T12:24:50;101600.06;;;9.97;100.00
59103;BME280;43999;51.660;5.616;2023-04-07T12:27:29;101601.13;;;9.91;100.00
59103;BME280;43999;51.660;5.616;2023-04-07T12:30:16;101602.38;;;9.82;100.00
59103;BME280;43999;51.660;5.616;2023-04-07T12:32:45;101601.66;;;9.77;100.00
59103;BME280;43999;51.660;5.616;2023-04-07T12:35:16;101603.56;;;9.74;100.00
59103;BME280;43999;51.660;5.616;2023-04-07T12:37:45;101615.00;;;9.71;100.00
59103;BME280;43999;51.660;5.616;2023-04-07T12:40:16;101618.38;;;9.75;100.00
59103;BME280;43999;51.660;5.616;2023-04-07T12:42:44;101615.63;;;9.78;100.00
59103;BME280;43999;51.660;5.616;2023-04-07T12:45:11;101619.59;;;9.88;100.00
59103;BME280;43999;51.660;5.616;2023-04-07T12:47:44;101623.81;;;9.92;100.00
59103;BME280;43999;51.660;5.616;2023-04-07T12:50:13;101620.75;;;10.03;100.00
59103;BME280;43999;51.660;5.616;2023-04-07T12:52:50;101622.47;;;10.04;100.00
59103;BME280;43999;51.660;5.616;2023-04-07T12:55:20;101626.06;;;10.01;100.00
59103;BME280;43999;51.660;5.616;2023-04-07T12:57:56;101631.31;;;10.01;100.00
59103;BME280;43999;51.660;5.616;2023-04-07T13:00:26;101634.22;;;9.94;100.00
59103;BME280;43999;51.660;5.616;2023-04-07T13:02:56;101625.75;;;9.87;100.00
59103;BME280;43999;51.660;5.616;2023-04-07T13:05:24;101632.91;;;9.82;100.00
59103;BME280;43999;51.660;5.616;2023-04-07T13:07:55;101626.09;;;9.78;100.00
59103;BME280;43999;51.660;5.616;2023-04-07T13:10:25;101632.28;;;9.75;100.00
59103;BME280;43999;51.660;5.616;2023-04-07T13:13:00;101628.03;;;9.73;100.00
59103;BME280;43999;51.660;5.616;2023-04-07T13:15:29;101633.25;;;9.73;100.00
59103;BME280;43999;51.660;5.616;2023-04-07T13:18:02;101635.81;;;9.74;100.00
59103;BME280;43999;51.660;5.616;2023-04-07T13:20:30;101625.28;;;9.76;100.00
59103;BME280;43999;51.660;5.616;2023-04-07T13:22:58;101631.34;;;9.78;100.00
59103;BME280;43999;51.660;5.616;2023-04-07T13:25:36;101635.59;;;9.80;100.00
59103;BME280;43999;51.660;5.616;2023-04-07T13:28:12;101633.03;;;9.79;100.00
59103;BME280;43999;51.660;5.616;2023-04-07T13:30:44;101638.19;;;9.80;100.00